Salton City, CA (92275)

2:38 AM PDT on August 29, 2015 (GMT -0700)
MesoWest | | Change Station
CLOSE
Current Station
Personal Weather Station
Location: Salton City, CA
Elevation: -100 ft
Nearby Weather Stations

Elev -100 ft 33.66 °N, 116.15 °W | Updated 43 minutes ago

Clear
Clear
97 °F
Feels Like 94 °F
N
8
Wind Variable Wind from NW
Gusts 12.0 mph

Today
High -- | Low -- °F
--% Chance of Precip.
Yesterday
High -- | Low -- °F
Precip. -- in
6:16 AM 7:14 PM
Full, 100% visible
Pressure 29.71 in
Visibility 10.0 miles
Clouds Clear
Heat Index 94 °F
Dew Point 52 °F
Humidity 22%
Rainfall in
Snow Depth Not available.
UV 0 out of 12
Pollen 5.30 out of 12
Air Quality Not available.
Flu Activity Not available.
METAR KTRM 290852Z AUTO 34009KT 10SM CLR 36/09 A2970 RMK AO2 SLP060 T03560089 58001 TSNO
Pressure 29.71 in
Visibility 10.0 miles
Clouds Clear
Heat Index 94 °F
Dew Point 52 °F
Humidity 22%
Rainfall in
Snow Depth Not available.
UV 0 out of 12
Pollen 5.30 out of 12
Air Quality Not available.
Flu Activity Not available.
METAR KTRM 290852Z AUTO 34009KT 10SM CLR 36/09 A2970 RMK AO2 SLP060 T03560089 58001 TSNO

10-Day Weather Forecast

×

Almanac

Astronomy

Aug. 29, 2015 Rise Set
Actual Time
Civil Twilight
Nautical Twilight
Astronomical Twilight
Moon
Length of Visible Light
Length of Day
Tomorrow will be .
, % of the Moon is Illuminated

Today's Extremes

State Highs State Lows

Community

WunderPhotos

Upload Photos

1,850,634 photos uploaded!

WunderBlogs® & News

Nearby

Air Quality

  Air Quality AQ Index Pollutant
Not available.

Snow Depth

Station Depth Elevation

Earthquake Activity

City Distance Mag. Time & Date
Minimum magnitude displayed is 2.5.

Coastal Water Temperatures

Place Temperature

Stations

Nearby Weather Stations

Station Location Temp. Windchill Dew Point Humidity Wind Precip. Elev Updated Type